< < Back
Terminal Aerodrome Forecast


Current Version              Previous Versions:   1  2  3  4  5  6  7  8  9  

Terminal Aerodrome Forecast

327
FTUS42 KMLB 252330
TAFDAB
TAF
KDAB 252330Z 2600/2624 09008KT P6SM SCT025 SCT250
     FM260400 10003KT P6SM SCT020
     FM261400 11010KT P6SM FEW025
     FM261700 10012G18KT P6SM SCT030 BKN050=



Latest METAR

303
SAUS80 KWBC 270300
MTRDAB
METAR KDAB 270253Z 11006KT 10SM FEW030 SCT250 26/21 A3022 RMK AO2 SLP232
T02560206 51014


USA.gov is the U.S. government's official web portal to all federal, state and local government web resources and services.